sensor_id;sensor_type;location;lat;lon;timestamp;P1;durP1;ratioP1;P2;durP2;ratioP2
47866;SDS011;33628;50.806;11.586;2022-12-05T00:02:10;252.77;;;43.63;;
47866;SDS011;33628;50.806;11.586;2022-12-05T00:04:36;158.45;;;41.97;;
47866;SDS011;33628;50.806;11.586;2022-12-05T00:07:04;180.07;;;40.80;;
47866;SDS011;33628;50.806;11.586;2022-12-05T00:09:32;202.50;;;43.40;;
47866;SDS011;33628;50.806;11.586;2022-12-05T00:11:59;188.50;;;42.55;;
47866;SDS011;33628;50.806;11.586;2022-12-05T00:14:26;182.38;;;39.42;;
47866;SDS011;33628;50.806;11.586;2022-12-05T00:16:55;191.88;;;40.67;;
47866;SDS011;33628;50.806;11.586;2022-12-05T00:19:22;142.73;;;38.97;;
47866;SDS011;33628;50.806;11.586;2022-12-05T00:21:50;159.40;;;41.90;;
47866;SDS011;33628;50.806;11.586;2022-12-05T00:24:17;171.68;;;43.05;;
47866;SDS011;33628;50.806;11.586;2022-12-05T00:26:44;164.75;;;41.15;;
47866;SDS011;33628;50.806;11.586;2022-12-05T00:29:12;175.35;;;42.70;;
47866;SDS011;33628;50.806;11.586;2022-12-05T00:31:39;153.18;;;41.88;;
47866;SDS011;33628;50.806;11.586;2022-12-05T00:34:06;163.52;;;39.55;;
47866;SDS011;33628;50.806;11.586;2022-12-05T00:36:33;145.52;;;39.85;;
47866;SDS011;33628;50.806;11.586;2022-12-05T00:39:03;202.68;;;49.17;;
47866;SDS011;33628;50.806;11.586;2022-12-05T00:41:31;205.02;;;45.83;;
47866;SDS011;33628;50.806;11.586;2022-12-05T00:43:58;224.35;;;46.53;;
47866;SDS011;33628;50.806;11.586;2022-12-05T00:46:27;173.82;;;44.08;;
47866;SDS011;33628;50.806;11.586;2022-12-05T00:48:55;175.85;;;43.15;;
47866;SDS011;33628;50.806;11.586;2022-12-05T00:51:24;153.48;;;41.03;;
47866;SDS011;33628;50.806;11.586;2022-12-05T00:53:56;186.00;;;40.28;;
47866;SDS011;33628;50.806;11.586;2022-12-05T00:56:25;193.93;;;39.20;;
47866;SDS011;33628;50.806;11.586;2022-12-05T00:58:53;190.32;;;38.60;;
47866;SDS011;33628;50.806;11.586;2022-12-05T01:01:21;174.07;;;41.60;;
47866;SDS011;33628;50.806;11.586;2022-12-05T01:03:50;182.02;;;46.25;;
47866;SDS011;33628;50.806;11.586;2022-12-05T01:06:18;263.58;;;51.38;;
47866;SDS011;33628;50.806;11.586;2022-12-05T01:08:45;236.35;;;48.28;;
47866;SDS011;33628;50.806;11.586;2022-12-05T01:11:13;203.90;;;46.13;;
47866;SDS011;33628;50.806;11.586;2022-12-05T01:13:43;182.82;;;42.97;;
47866;SDS011;33628;50.806;11.586;2022-12-05T01:16:14;214.30;;;41.17;;
47866;SDS011;33628;50.806;11.586;2022-12-05T01:18:41;165.45;;;38.00;;
47866;SDS011;33628;50.806;11.586;2022-12-05T01:21:08;142.07;;;37.38;;
47866;SDS011;33628;50.806;11.586;2022-12-05T01:23:35;154.88;;;36.05;;
47866;SDS011;33628;50.806;11.586;2022-12-05T01:26:04;161.20;;;36.17;;
47866;SDS011;33628;50.806;11.586;2022-12-05T01:28:32;121.68;;;34.67;;
47866;SDS011;33628;50.806;11.586;2022-12-05T01:31:00;103.28;;;31.42;;
47866;SDS011;33628;50.806;11.586;2022-12-05T01:33:30;102.55;;;32.53;;
47866;SDS011;33628;50.806;11.586;2022-12-05T01:35:56;126.55;;;31.27;;
47866;SDS011;33628;50.806;11.586;2022-12-05T01:38:23;88.65;;;31.13;;
47866;SDS011;33628;50.806;11.586;2022-12-05T01:40:57;85.00;;;29.88;;
47866;SDS011;33628;50.806;11.586;2022-12-05T01:43:25;76.78;;;28.38;;
47866;SDS011;33628;50.806;11.586;2022-12-05T01:45:51;82.22;;;29.33;;
47866;SDS011;33628;50.806;11.586;2022-12-05T01:48:20;86.82;;;29.98;;
47866;SDS011;33628;50.806;11.586;2022-12-05T01:50:50;81.63;;;30.90;;
47866;SDS011;33628;50.806;11.586;2022-12-05T01:53:17;78.30;;;28.58;;
47866;SDS011;33628;50.806;11.586;2022-12-05T01:55:44;81.38;;;29.67;;
47866;SDS011;33628;50.806;11.586;2022-12-05T01:58:12;71.47;;;28.17;;
47866;SDS011;33628;50.806;11.586;2022-12-05T02:00:40;69.22;;;28.23;;
47866;SDS011;33628;50.806;11.586;2022-12-05T02:03:08;65.80;;;25.55;;
47866;SDS011;33628;50.806;11.586;2022-12-05T02:05:39;67.95;;;26.63;;
47866;SDS011;33628;50.806;11.586;2022-12-05T02:08:07;64.70;;;28.17;;
47866;SDS011;33628;50.806;11.586;2022-12-05T02:10:34;64.35;;;27.35;;
47866;SDS011;33628;50.806;11.586;2022-12-05T02:13:04;64.50;;;25.17;;
47866;SDS011;33628;50.806;11.586;2022-12-05T02:15:51;64.72;;;26.80;;
47866;SDS011;33628;50.806;11.586;2022-12-05T02:18:27;66.25;;;26.88;;
47866;SDS011;33628;50.806;11.586;2022-12-05T02:21:15;59.97;;;25.25;;
47866;SDS011;33628;50.806;11.586;2022-12-05T02:24:26;60.80;;;24.67;;
47866;SDS011;33628;50.806;11.586;2022-12-05T02:27:26;56.17;;;23.50;;
47866;SDS011;33628;50.806;11.586;2022-12-05T02:30:07;56.95;;;24.52;;
47866;SDS011;33628;50.806;11.586;2022-12-05T02:32:42;53.10;;;24.33;;
47866;SDS011;33628;50.806;11.586;2022-12-05T02:35:17;51.38;;;22.98;;
47866;SDS011;33628;50.806;11.586;2022-12-05T02:37:51;52.20;;;22.75;;
47866;SDS011;33628;50.806;11.586;2022-12-05T02:40:23;54.92;;;22.83;;
47866;SDS011;33628;50.806;11.586;2022-12-05T02:42:55;57.90;;;24.45;;
47866;SDS011;33628;50.806;11.586;2022-12-05T02:45:26;57.92;;;24.15;;
47866;SDS011;33628;50.806;11.586;2022-12-05T02:47:54;56.45;;;24.60;;
47866;SDS011;33628;50.806;11.586;2022-12-05T02:50:24;51.65;;;25.33;;
47866;SDS011;33628;50.806;11.586;2022-12-05T02:52:54;56.53;;;23.63;;
47866;SDS011;33628;50.806;11.586;2022-12-05T02:55:23;61.28;;;24.65;;
47866;SDS011;33628;50.806;11.586;2022-12-05T02:57:52;61.78;;;25.17;;
47866;SDS011;33628;50.806;11.586;2022-12-05T03:00:21;61.28;;;26.15;;
47866;SDS011;33628;50.806;11.586;2022-12-05T03:02:51;60.50;;;25.88;;
47866;SDS011;33628;50.806;11.586;2022-12-05T03:05:20;58.45;;;25.63;;
47866;SDS011;33628;50.806;11.586;2022-12-05T03:07:51;64.03;;;26.95;;
47866;SDS011;33628;50.806;11.586;2022-12-05T03:10:20;72.85;;;28.30;;
47866;SDS011;33628;50.806;11.586;2022-12-05T03:12:49;70.25;;;26.80;;
47866;SDS011;33628;50.806;11.586;2022-12-05T03:15:20;73.18;;;27.38;;
47866;SDS011;33628;50.806;11.586;2022-12-05T03:17:52;72.10;;;27.88;;
47866;SDS011;33628;50.806;11.586;2022-12-05T03:20:22;67.82;;;26.67;;
47866;SDS011;33628;50.806;11.586;2022-12-05T03:22:51;66.63;;;26.35;;
47866;SDS011;33628;50.806;11.586;2022-12-05T03:25:21;60.25;;;25.15;;
47866;SDS011;33628;50.806;11.586;2022-12-05T03:27:52;57.13;;;22.88;;
47866;SDS011;33628;50.806;11.586;2022-12-05T03:30:21;52.42;;;22.83;;
47866;SDS011;33628;50.806;11.586;2022-12-05T03:32:49;53.65;;;22.55;;
47866;SDS011;33628;50.806;11.586;2022-12-05T03:35:23;47.95;;;22.85;;
47866;SDS011;33628;50.806;11.586;2022-12-05T03:37:54;52.35;;;23.60;;
47866;SDS011;33628;50.806;11.586;2022-12-05T03:40:25;52.40;;;23.70;;
47866;SDS011;33628;50.806;11.586;2022-12-05T03:42:54;48.83;;;23.05;;
47866;SDS011;33628;50.806;11.586;2022-12-05T03:45:26;52.97;;;22.83;;
47866;SDS011;33628;50.806;11.586;2022-12-05T03:47:58;83.10;;;34.13;;
47866;SDS011;33628;50.806;11.586;2022-12-05T03:50:29;49.33;;;22.83;;
47866;SDS011;33628;50.806;11.586;2022-12-05T03:52:57;52.72;;;22.52;;
47866;SDS011;33628;50.806;11.586;2022-12-05T03:55:25;51.00;;;22.65;;
47866;SDS011;33628;50.806;11.586;2022-12-05T03:57:56;59.58;;;23.75;;
47866;SDS011;33628;50.806;11.586;2022-12-05T04:00:24;50.00;;;22.58;;
47866;SDS011;33628;50.806;11.586;2022-12-05T04:02:54;55.47;;;22.15;;
47866;SDS011;33628;50.806;11.586;2022-12-05T04:05:27;49.80;;;22.95;;
47866;SDS011;33628;50.806;11.586;2022-12-05T04:07:58;51.85;;;23.33;;
47866;SDS011;33628;50.806;11.586;2022-12-05T04:10:27;46.60;;;20.83;;
47866;SDS011;33628;50.806;11.586;2022-12-05T04:12:57;57.25;;;23.50;;
47866;SDS011;33628;50.806;11.586;2022-12-05T04:15:43;53.17;;;22.70;;
47866;SDS011;33628;50.806;11.586;2022-12-05T04:18:33;50.03;;;22.40;;
47866;SDS011;33628;50.806;11.586;2022-12-05T04:21:01;52.05;;;23.05;;
47866;SDS011;33628;50.806;11.586;2022-12-05T04:23:49;47.78;;;22.92;;
47866;SDS011;33628;50.806;11.586;2022-12-05T04:26:36;53.47;;;23.83;;
47866;SDS011;33628;50.806;11.586;2022-12-05T04:29:10;50.75;;;23.08;;
47866;SDS011;33628;50.806;11.586;2022-12-05T04:31:43;57.13;;;25.27;;
47866;SDS011;33628;50.806;11.586;2022-12-05T04:34:15;56.45;;;24.58;;
47866;SDS011;33628;50.806;11.586;2022-12-05T04:36:44;61.08;;;26.42;;
47866;SDS011;33628;50.806;11.586;2022-12-05T04:39:15;53.70;;;23.45;;
47866;SDS011;33628;50.806;11.586;2022-12-05T04:41:43;57.90;;;25.33;;
47866;SDS011;33628;50.806;11.586;2022-12-05T04:44:13;58.65;;;26.10;;
47866;SDS011;33628;50.806;11.586;2022-12-05T04:46:42;60.63;;;25.02;;
47866;SDS011;33628;50.806;11.586;2022-12-05T04:49:10;61.25;;;25.08;;
47866;SDS011;33628;50.806;11.586;2022-12-05T04:51:40;59.10;;;24.70;;
47866;SDS011;33628;50.806;11.586;2022-12-05T04:54:08;61.08;;;25.55;;
47866;SDS011;33628;50.806;11.586;2022-12-05T04:56:40;51.45;;;22.75;;
47866;SDS011;33628;50.806;11.586;2022-12-05T04:59:09;49.20;;;21.58;;
47866;SDS011;33628;50.806;11.586;2022-12-05T05:01:37;53.20;;;22.52;;
47866;SDS011;33628;50.806;11.586;2022-12-05T05:04:06;47.13;;;22.27;;
47866;SDS011;33628;50.806;11.586;2022-12-05T05:06:36;45.75;;;20.80;;
47866;SDS011;33628;50.806;11.586;2022-12-05T05:09:05;45.58;;;19.98;;
47866;SDS011;33628;50.806;11.586;2022-12-05T05:11:32;42.60;;;20.17;;
47866;SDS011;33628;50.806;11.586;2022-12-05T05:13:59;48.08;;;21.85;;
47866;SDS011;33628;50.806;11.586;2022-12-05T05:16:27;46.83;;;21.83;;
47866;SDS011;33628;50.806;11.586;2022-12-05T05:18:55;45.22;;;21.35;;
47866;SDS011;33628;50.806;11.586;2022-12-05T05:21:23;44.22;;;19.75;;
47866;SDS011;33628;50.806;11.586;2022-12-05T05:23:50;44.15;;;20.30;;
47866;SDS011;33628;50.806;11.586;2022-12-05T05:26:18;47.20;;;20.95;;
47866;SDS011;33628;50.806;11.586;2022-12-05T05:28:45;44.95;;;20.65;;
47866;SDS011;33628;50.806;11.586;2022-12-05T05:31:12;45.17;;;19.80;;
47866;SDS011;33628;50.806;11.586;2022-12-05T05:33:39;43.75;;;19.85;;
47866;SDS011;33628;50.806;11.586;2022-12-05T05:36:07;45.60;;;20.63;;
47866;SDS011;33628;50.806;11.586;2022-12-05T05:38:35;43.28;;;19.88;;
47866;SDS011;33628;50.806;11.586;2022-12-05T05:41:02;51.53;;;21.63;;
47866;SDS011;33628;50.806;11.586;2022-12-05T05:43:30;48.92;;;22.02;;
47866;SDS011;33628;50.806;11.586;2022-12-05T05:45:57;52.47;;;22.98;;
47866;SDS011;33628;50.806;11.586;2022-12-05T05:48:24;57.00;;;23.98;;
47866;SDS011;33628;50.806;11.586;2022-12-05T05:50:50;53.45;;;23.48;;
47866;SDS011;33628;50.806;11.586;2022-12-05T05:53:17;57.33;;;24.17;;
47866;SDS011;33628;50.806;11.586;2022-12-05T05:55:43;59.83;;;25.23;;
47866;SDS011;33628;50.806;11.586;2022-12-05T05:58:10;59.95;;;24.27;;
47866;SDS011;33628;50.806;11.586;2022-12-05T06:00:38;66.65;;;26.05;;
47866;SDS011;33628;50.806;11.586;2022-12-05T06:03:05;63.95;;;25.40;;
47866;SDS011;33628;50.806;11.586;2022-12-05T06:05:31;67.68;;;27.15;;
47866;SDS011;33628;50.806;11.586;2022-12-05T06:07:58;65.30;;;27.55;;
47866;SDS011;33628;50.806;11.586;2022-12-05T06:10:25;77.07;;;27.33;;
47866;SDS011;33628;50.806;11.586;2022-12-05T06:12:51;60.85;;;25.42;;
47866;SDS011;33628;50.806;11.586;2022-12-05T06:15:18;60.03;;;25.25;;
47866;SDS011;33628;50.806;11.586;2022-12-05T06:17:46;59.17;;;24.45;;
47866;SDS011;33628;50.806;11.586;2022-12-05T06:20:14;51.65;;;22.95;;
47866;SDS011;33628;50.806;11.586;2022-12-05T06:22:40;53.53;;;23.13;;
47866;SDS011;33628;50.806;11.586;2022-12-05T06:25:07;40.80;;;20.25;;
47866;SDS011;33628;50.806;11.586;2022-12-05T06:27:35;46.20;;;20.67;;
47866;SDS011;33628;50.806;11.586;2022-12-05T06:30:02;48.53;;;22.77;;
47866;SDS011;33628;50.806;11.586;2022-12-05T06:32:30;55.42;;;24.35;;
47866;SDS011;33628;50.806;11.586;2022-12-05T06:34:58;51.17;;;24.23;;
47866;SDS011;33628;50.806;11.586;2022-12-05T06:37:25;47.45;;;23.42;;
47866;SDS011;33628;50.806;11.586;2022-12-05T06:39:51;55.67;;;26.05;;
47866;SDS011;33628;50.806;11.586;2022-12-05T06:42:18;56.60;;;26.75;;
47866;SDS011;33628;50.806;11.586;2022-12-05T06:44:46;52.97;;;25.38;;
47866;SDS011;33628;50.806;11.586;2022-12-05T06:47:13;57.70;;;26.00;;
47866;SDS011;33628;50.806;11.586;2022-12-05T06:49:40;55.42;;;26.50;;
47866;SDS011;33628;50.806;11.586;2022-12-05T06:52:08;55.55;;;26.27;;
47866;SDS011;33628;50.806;11.586;2022-12-05T06:54:34;50.63;;;25.55;;
47866;SDS011;33628;50.806;11.586;2022-12-05T06:57:01;49.42;;;25.08;;
47866;SDS011;33628;50.806;11.586;2022-12-05T06:59:27;56.67;;;29.05;;
47866;SDS011;33628;50.806;11.586;2022-12-05T07:01:54;51.15;;;25.73;;
47866;SDS011;33628;50.806;11.586;2022-12-05T07:04:21;53.78;;;22.30;;
47866;SDS011;33628;50.806;11.586;2022-12-05T07:06:52;49.22;;;23.02;;
47866;SDS011;33628;50.806;11.586;2022-12-05T07:09:21;49.85;;;21.80;;
47866;SDS011;33628;50.806;11.586;2022-12-05T07:12:09;49.47;;;22.88;;
47866;SDS011;33628;50.806;11.586;2022-12-05T07:14:36;85.40;;;44.22;;
47866;SDS011;33628;50.806;11.586;2022-12-05T07:17:03;65.80;;;33.80;;
47866;SDS011;33628;50.806;11.586;2022-12-05T07:19:30;52.83;;;26.30;;
47866;SDS011;33628;50.806;11.586;2022-12-05T07:21:56;61.03;;;27.42;;
47866;SDS011;33628;50.806;11.586;2022-12-05T07:24:24;58.25;;;27.88;;
47866;SDS011;33628;50.806;11.586;2022-12-05T07:26:51;63.33;;;27.48;;
47866;SDS011;33628;50.806;11.586;2022-12-05T07:29:18;50.95;;;24.42;;
47866;SDS011;33628;50.806;11.586;2022-12-05T07:31:45;54.50;;;25.23;;
47866;SDS011;33628;50.806;11.586;2022-12-05T07:34:11;58.53;;;25.52;;
47866;SDS011;33628;50.806;11.586;2022-12-05T07:36:38;58.47;;;26.15;;
47866;SDS011;33628;50.806;11.586;2022-12-05T07:39:04;58.42;;;26.38;;
47866;SDS011;33628;50.806;11.586;2022-12-05T07:41:33;52.65;;;25.80;;
47866;SDS011;33628;50.806;11.586;2022-12-05T07:44:05;58.15;;;26.73;;
47866;SDS011;33628;50.806;11.586;2022-12-05T07:46:33;46.33;;;22.90;;
47866;SDS011;33628;50.806;11.586;2022-12-05T07:49:00;45.63;;;21.20;;
47866;SDS011;33628;50.806;11.586;2022-12-05T07:51:26;39.72;;;20.13;;
47866;SDS011;33628;50.806;11.586;2022-12-05T07:53:53;37.85;;;19.52;;
47866;SDS011;33628;50.806;11.586;2022-12-05T07:56:20;40.88;;;21.73;;
47866;SDS011;33628;50.806;11.586;2022-12-05T07:58:49;49.83;;;23.73;;
47866;SDS011;33628;50.806;11.586;2022-12-05T08:01:16;62.63;;;28.98;;
47866;SDS011;33628;50.806;11.586;2022-12-05T08:03:44;60.55;;;27.15;;
47866;SDS011;33628;50.806;11.586;2022-12-05T08:06:12;43.33;;;21.25;;
47866;SDS011;33628;50.806;11.586;2022-12-05T08:08:40;50.65;;;26.83;;
47866;SDS011;33628;50.806;11.586;2022-12-05T08:11:07;50.55;;;28.55;;
47866;SDS011;33628;50.806;11.586;2022-12-05T08:13:35;86.43;;;50.47;;
47866;SDS011;33628;50.806;11.586;2022-12-05T08:16:03;82.28;;;48.03;;
47866;SDS011;33628;50.806;11.586;2022-12-05T08:18:32;60.83;;;32.75;;
47866;SDS011;33628;50.806;11.586;2022-12-05T08:21:02;57.15;;;28.23;;
47866;SDS011;33628;50.806;11.586;2022-12-05T08:23:29;50.08;;;23.83;;
47866;SDS011;33628;50.806;11.586;2022-12-05T08:25:59;62.10;;;30.20;;
47866;SDS011;33628;50.806;11.586;2022-12-05T08:28:26;110.00;;;50.60;;
47866;SDS011;33628;50.806;11.586;2022-12-05T08:30:53;75.10;;;33.75;;
47866;SDS011;33628;50.806;11.586;2022-12-05T08:33:21;50.85;;;23.70;;
47866;SDS011;33628;50.806;11.586;2022-12-05T08:35:48;47.53;;;21.85;;
47866;SDS011;33628;50.806;11.586;2022-12-05T08:38:14;43.78;;;20.67;;
47866;SDS011;33628;50.806;11.586;2022-12-05T08:40:41;40.95;;;20.60;;
47866;SDS011;33628;50.806;11.586;2022-12-05T08:43:07;45.40;;;21.63;;
47866;SDS011;33628;50.806;11.586;2022-12-05T08:45:34;39.83;;;19.55;;
47866;SDS011;33628;50.806;11.586;2022-12-05T08:48:01;47.75;;;22.83;;
47866;SDS011;33628;50.806;11.586;2022-12-05T08:50:29;39.60;;;20.33;;
47866;SDS011;33628;50.806;11.586;2022-12-05T08:52:56;43.10;;;21.23;;
47866;SDS011;33628;50.806;11.586;2022-12-05T08:55:22;48.25;;;20.90;;
47866;SDS011;33628;50.806;11.586;2022-12-05T08:57:49;47.08;;;21.05;;
47866;SDS011;33628;50.806;11.586;2022-12-05T09:00:16;42.05;;;19.95;;
47866;SDS011;33628;50.806;11.586;2022-12-05T09:02:43;37.10;;;18.52;;
47866;SDS011;33628;50.806;11.586;2022-12-05T09:05:10;43.42;;;22.17;;
47866;SDS011;33628;50.806;11.586;2022-12-05T09:07:38;47.03;;;23.33;;
47866;SDS011;33628;50.806;11.586;2022-12-05T09:10:05;37.83;;;19.02;;
47866;SDS011;33628;50.806;11.586;2022-12-05T09:12:35;36.35;;;19.02;;
47866;SDS011;33628;50.806;11.586;2022-12-05T09:15:01;40.33;;;21.38;;
47866;SDS011;33628;50.806;11.586;2022-12-05T09:17:28;44.08;;;22.30;;
47866;SDS011;33628;50.806;11.586;2022-12-05T09:19:55;41.65;;;20.65;;
47866;SDS011;33628;50.806;11.586;2022-12-05T09:22:22;40.13;;;18.45;;
47866;SDS011;33628;50.806;11.586;2022-12-05T09:24:49;37.22;;;19.13;;
47866;SDS011;33628;50.806;11.586;2022-12-05T09:27:16;36.13;;;18.23;;
47866;SDS011;33628;50.806;11.586;2022-12-05T09:29:43;34.97;;;19.30;;
47866;SDS011;33628;50.806;11.586;2022-12-05T09:32:10;40.05;;;19.10;;
47866;SDS011;33628;50.806;11.586;2022-12-05T09:34:37;41.03;;;19.90;;
47866;SDS011;33628;50.806;11.586;2022-12-05T09:37:04;35.33;;;18.38;;
47866;SDS011;33628;50.806;11.586;2022-12-05T09:39:31;34.78;;;18.40;;
47866;SDS011;33628;50.806;11.586;2022-12-05T09:42:15;39.95;;;19.48;;
47866;SDS011;33628;50.806;11.586;2022-12-05T09:44:54;34.33;;;18.50;;
47866;SDS011;33628;50.806;11.586;2022-12-05T09:47:33;39.13;;;18.73;;
47866;SDS011;33628;50.806;11.586;2022-12-05T09:50:10;34.88;;;19.42;;
47866;SDS011;33628;50.806;11.586;2022-12-05T09:52:41;33.10;;;17.95;;
47866;SDS011;33628;50.806;11.586;2022-12-05T09:55:10;37.17;;;19.10;;
47866;SDS011;33628;50.806;11.586;2022-12-05T09:57:41;37.95;;;19.85;;
47866;SDS011;33628;50.806;11.586;2022-12-05T10:00:11;39.42;;;19.42;;
47866;SDS011;33628;50.806;11.586;2022-12-05T10:02:42;32.08;;;17.98;;
47866;SDS011;33628;50.806;11.586;2022-12-05T10:05:14;33.40;;;17.67;;
47866;SDS011;33628;50.806;11.586;2022-12-05T10:07:46;37.67;;;19.92;;
47866;SDS011;33628;50.806;11.586;2022-12-05T10:10:24;37.08;;;18.70;;
47866;SDS011;33628;50.806;11.586;2022-12-05T10:13:02;35.78;;;18.98;;
47866;SDS011;33628;50.806;11.586;2022-12-05T10:15:36;37.53;;;19.60;;
47866;SDS011;33628;50.806;11.586;2022-12-05T10:18:08;46.55;;;22.23;;
47866;SDS011;33628;50.806;11.586;2022-12-05T10:20:40;39.58;;;21.30;;
47866;SDS011;33628;50.806;11.586;2022-12-05T10:23:13;35.08;;;18.98;;
47866;SDS011;33628;50.806;11.586;2022-12-05T10:25:42;40.28;;;20.65;;
47866;SDS011;33628;50.806;11.586;2022-12-05T10:28:13;35.55;;;20.10;;
47866;SDS011;33628;50.806;11.586;2022-12-05T10:30:42;32.90;;;17.60;;
47866;SDS011;33628;50.806;11.586;2022-12-05T10:33:12;35.28;;;19.00;;
47866;SDS011;33628;50.806;11.586;2022-12-05T10:35:40;35.58;;;18.42;;
47866;SDS011;33628;50.806;11.586;2022-12-05T10:38:09;34.08;;;18.30;;
47866;SDS011;33628;50.806;11.586;2022-12-05T10:40:38;32.72;;;19.13;;
47866;SDS011;33628;50.806;11.586;2022-12-05T10:43:06;30.33;;;17.60;;
47866;SDS011;33628;50.806;11.586;2022-12-05T10:45:36;51.17;;;28.60;;
47866;SDS011;33628;50.806;11.586;2022-12-05T10:48:07;50.72;;;27.95;;
47866;SDS011;33628;50.806;11.586;2022-12-05T10:50:36;56.45;;;29.92;;
47866;SDS011;33628;50.806;11.586;2022-12-05T10:53:05;64.10;;;31.23;;
47866;SDS011;33628;50.806;11.586;2022-12-05T10:55:33;34.22;;;18.30;;
47866;SDS011;33628;50.806;11.586;2022-12-05T10:58:08;66.45;;;34.90;;
47866;SDS011;33628;50.806;11.586;2022-12-05T11:00:38;39.40;;;21.65;;
47866;SDS011;33628;50.806;11.586;2022-12-05T11:03:21;38.40;;;21.85;;
47866;SDS011;33628;50.806;11.586;2022-12-05T11:05:54;32.47;;;18.50;;
47866;SDS011;33628;50.806;11.586;2022-12-05T11:08:25;36.55;;;18.10;;
47866;SDS011;33628;50.806;11.586;2022-12-05T11:11:02;34.17;;;18.02;;
47866;SDS011;33628;50.806;11.586;2022-12-05T11:13:30;31.73;;;17.63;;
47866;SDS011;33628;50.806;11.586;2022-12-05T11:16:02;39.47;;;20.88;;
47866;SDS011;33628;50.806;11.586;2022-12-05T11:18:29;34.50;;;18.33;;
47866;SDS011;33628;50.806;11.586;2022-12-05T11:21:07;31.80;;;18.05;;
47866;SDS011;33628;50.806;11.586;2022-12-05T11:23:35;36.83;;;18.27;;
47866;SDS011;33628;50.806;11.586;2022-12-05T11:26:02;39.60;;;19.55;;
47866;SDS011;33628;50.806;11.586;2022-12-05T11:28:33;33.63;;;17.92;;
47866;SDS011;33628;50.806;11.586;2022-12-05T11:31:03;35.00;;;19.70;;
47866;SDS011;33628;50.806;11.586;2022-12-05T11:33:31;37.42;;;20.38;;
47866;SDS011;33628;50.806;11.586;2022-12-05T11:36:01;33.65;;;19.35;;
47866;SDS011;33628;50.806;11.586;2022-12-05T11:38:31;36.17;;;18.73;;
47866;SDS011;33628;50.806;11.586;2022-12-05T11:41:07;37.15;;;19.08;;
47866;SDS011;33628;50.806;11.586;2022-12-05T11:46:33;34.05;;;17.83;;
47866;SDS011;33628;50.806;11.586;2022-12-05T11:49:10;33.58;;;16.98;;
47866;SDS011;33628;50.806;11.586;2022-12-05T11:51:46;37.33;;;18.15;;
47866;SDS011;33628;50.806;11.586;2022-12-05T11:54:32;35.15;;;18.50;;
47866;SDS011;33628;50.806;11.586;2022-12-05T11:57:06;37.03;;;19.20;;
47866;SDS011;33628;50.806;11.586;2022-12-05T11:59:44;35.33;;;19.15;;
47866;SDS011;33628;50.806;11.586;2022-12-05T12:02:25;33.35;;;19.45;;
47866;SDS011;33628;50.806;11.586;2022-12-05T12:04:59;34.10;;;18.33;;
47866;SDS011;33628;50.806;11.586;2022-12-05T12:07:38;32.35;;;17.90;;
47866;SDS011;33628;50.806;11.586;2022-12-05T12:10:16;31.00;;;17.83;;
47866;SDS011;33628;50.806;11.586;2022-12-05T12:12:50;30.15;;;17.05;;
47866;SDS011;33628;50.806;11.586;2022-12-05T12:15:30;32.20;;;18.10;;
47866;SDS011;33628;50.806;11.586;2022-12-05T12:18:07;31.10;;;16.73;;
47866;SDS011;33628;50.806;11.586;2022-12-05T12:20:41;30.63;;;16.67;;
47866;SDS011;33628;50.806;11.586;2022-12-05T12:25:49;27.48;;;16.45;;
47866;SDS011;33628;50.806;11.586;2022-12-05T12:28:27;31.17;;;16.83;;
47866;SDS011;33628;50.806;11.586;2022-12-05T12:31:05;30.98;;;16.02;;
47866;SDS011;33628;50.806;11.586;2022-12-05T12:33:54;36.08;;;18.40;;
47866;SDS011;33628;50.806;11.586;2022-12-05T12:36:25;34.05;;;19.00;;
47866;SDS011;33628;50.806;11.586;2022-12-05T12:41:47;34.58;;;18.85;;
47866;SDS011;33628;50.806;11.586;2022-12-05T12:44:24;30.50;;;17.85;;
47866;SDS011;33628;50.806;11.586;2022-12-05T12:47:10;32.53;;;17.70;;
47866;SDS011;33628;50.806;11.586;2022-12-05T12:49:46;29.95;;;18.00;;
47866;SDS011;33628;50.806;11.586;2022-12-05T12:52:21;33.15;;;17.70;;
47866;SDS011;33628;50.806;11.586;2022-12-05T12:54:52;125.40;;;60.60;;
47866;SDS011;33628;50.806;11.586;2022-12-05T12:57:35;60.67;;;31.98;;
47866;SDS011;33628;50.806;11.586;2022-12-05T13:00:21;62.30;;;34.10;;
47866;SDS011;33628;50.806;11.586;2022-12-05T13:02:50;43.50;;;24.27;;
47866;SDS011;33628;50.806;11.586;2022-12-05T13:05:22;60.58;;;33.47;;
47866;SDS011;33628;50.806;11.586;2022-12-05T13:07:52;37.88;;;20.17;;
47866;SDS011;33628;50.806;11.586;2022-12-05T13:10:24;35.85;;;19.63;;
47866;SDS011;33628;50.806;11.586;2022-12-05T13:12:54;30.90;;;18.92;;
47866;SDS011;33628;50.806;11.586;2022-12-05T13:15:23;27.48;;;16.48;;
47866;SDS011;33628;50.806;11.586;2022-12-05T13:17:56;29.25;;;16.88;;
47866;SDS011;33628;50.806;11.586;2022-12-05T13:20:25;26.23;;;15.48;;
47866;SDS011;33628;50.806;11.586;2022-12-05T13:22:55;29.30;;;17.02;;
47866;SDS011;33628;50.806;11.586;2022-12-05T13:25:23;26.05;;;15.80;;
47866;SDS011;33628;50.806;11.586;2022-12-05T13:27:52;29.20;;;17.20;;
47866;SDS011;33628;50.806;11.586;2022-12-05T13:30:20;31.45;;;18.00;;
47866;SDS011;33628;50.806;11.586;2022-12-05T13:32:47;31.70;;;18.23;;
47866;SDS011;33628;50.806;11.586;2022-12-05T13:35:22;34.38;;;19.38;;
47866;SDS011;33628;50.806;11.586;2022-12-05T13:38:20;40.25;;;21.88;;
47866;SDS011;33628;50.806;11.586;2022-12-05T13:41:06;31.52;;;18.15;;
47866;SDS011;33628;50.806;11.586;2022-12-05T13:43:52;30.63;;;18.15;;
47866;SDS011;33628;50.806;11.586;2022-12-05T13:46:22;32.83;;;17.65;;
47866;SDS011;33628;50.806;11.586;2022-12-05T13:48:52;33.60;;;20.75;;
47866;SDS011;33628;50.806;11.586;2022-12-05T13:51:27;36.08;;;19.88;;
47866;SDS011;33628;50.806;11.586;2022-12-05T13:53:57;31.02;;;18.05;;
47866;SDS011;33628;50.806;11.586;2022-12-05T13:56:26;32.40;;;18.40;;
47866;SDS011;33628;50.806;11.586;2022-12-05T13:58:55;29.25;;;18.17;;
47866;SDS011;33628;50.806;11.586;2022-12-05T14:01:42;37.03;;;19.83;;
47866;SDS011;33628;50.806;11.586;2022-12-05T14:04:23;39.58;;;21.70;;
47866;SDS011;33628;50.806;11.586;2022-12-05T14:07:10;31.30;;;18.23;;
47866;SDS011;33628;50.806;11.586;2022-12-05T14:09:48;34.95;;;18.25;;
47866;SDS011;33628;50.806;11.586;2022-12-05T14:12:28;30.23;;;17.60;;
47866;SDS011;33628;50.806;11.586;2022-12-05T14:14:59;30.77;;;18.08;;
47866;SDS011;33628;50.806;11.586;2022-12-05T14:17:27;34.67;;;19.25;;
47866;SDS011;33628;50.806;11.586;2022-12-05T14:19:58;27.77;;;18.10;;
47866;SDS011;33628;50.806;11.586;2022-12-05T14:22:40;30.40;;;18.17;;
47866;SDS011;33628;50.806;11.586;2022-12-05T14:25:27;33.65;;;17.58;;
47866;SDS011;33628;50.806;11.586;2022-12-05T14:28:19;35.92;;;19.70;;
47866;SDS011;33628;50.806;11.586;2022-12-05T14:30:59;37.05;;;19.52;;
47866;SDS011;33628;50.806;11.586;2022-12-05T14:33:33;38.42;;;20.88;;
47866;SDS011;33628;50.806;11.586;2022-12-05T14:36:03;41.53;;;20.63;;
47866;SDS011;33628;50.806;11.586;2022-12-05T14:38:33;38.58;;;22.63;;